createdAt,value
2022-10-26T00:00:32.281Z,2.67
2022-10-26T00:01:33.769Z,3.77
2022-10-26T00:02:35.285Z,4.20
2022-10-26T00:03:37.085Z,4.20
2022-10-26T00:04:38.463Z,5.40
2022-10-26T00:05:39.877Z,4.73
2022-10-26T00:06:41.297Z,4.43
2022-10-26T00:07:42.688Z,4.10
2022-10-26T00:08:44.149Z,4.10
2022-10-26T00:09:45.536Z,4.17
2022-10-26T00:10:46.929Z,3.63
2022-10-26T00:11:48.275Z,3.63
2022-10-26T00:12:51.305Z,3.50
2022-10-26T00:13:52.967Z,3.00
2022-10-26T00:14:54.500Z,2.50
2022-10-26T00:15:56.120Z,2.20
2022-10-26T00:16:57.531Z,2.37
2022-10-26T00:17:58.929Z,2.47
2022-10-26T00:19:00.471Z,2.20
2022-10-26T00:20:02.459Z,2.17
2022-10-26T00:21:04.562Z,2.13
2022-10-26T00:22:05.957Z,2.20
2022-10-26T00:23:07.294Z,2.57
2022-10-26T00:24:08.691Z,2.40
2022-10-26T00:25:10.086Z,2.40
2022-10-26T00:26:11.580Z,2.00
2022-10-26T00:27:13.036Z,1.80
2022-10-26T00:28:14.486Z,2.17
2022-10-26T00:29:16.072Z,1.77
2022-10-26T00:30:17.431Z,1.53
2022-10-26T00:31:18.787Z,1.70
2022-10-26T00:32:20.172Z,1.60
2022-10-26T00:33:21.550Z,1.40
2022-10-26T00:34:22.967Z,1.53
2022-10-26T00:35:44.662Z,1.67
2022-10-26T00:36:45.761Z,1.57
2022-10-26T00:37:47.423Z,1.70
2022-10-26T00:38:53.140Z,1.70
2022-10-26T00:39:54.686Z,1.63
2022-10-26T00:40:59.255Z,1.53
2022-10-26T00:42:00.724Z,1.60
2022-10-26T00:43:02.202Z,1.80
2022-10-26T00:44:23.473Z,1.77
2022-10-26T00:45:27.269Z,1.70
2022-10-26T00:46:33.793Z,1.60
2022-10-26T00:47:43.118Z,1.47
2022-10-26T00:48:46.045Z,1.73
2022-10-26T00:49:48.547Z,1.50
2022-10-26T00:50:50.877Z,1.80
2022-10-26T00:51:53.026Z,1.50
2022-10-26T00:52:55.107Z,1.67
2022-10-26T00:53:56.616Z,1.67
2022-10-26T00:54:58.055Z,1.60
2022-10-26T00:56:00.230Z,1.70
2022-10-26T00:57:01.620Z,1.70
2022-10-26T00:58:05.511Z,1.60
2022-10-26T00:59:08.214Z,1.33
2022-10-26T01:00:09.845Z,1.63
2022-10-26T01:01:11.575Z,1.43
2022-10-26T01:02:13.252Z,1.73
2022-10-26T01:03:15.745Z,1.50
2022-10-26T01:04:18.300Z,1.70
2022-10-26T01:05:19.697Z,1.57
2022-10-26T01:06:21.176Z,1.50
2022-10-26T01:08:24.359Z,1.40
2022-10-26T01:09:25.814Z,1.97
2022-10-26T01:10:27.631Z,2.30
2022-10-26T01:11:29.063Z,1.80
2022-10-26T01:12:30.467Z,1.67
2022-10-26T01:13:33.243Z,1.63
2022-10-26T01:14:34.656Z,1.80
2022-10-26T01:16:11.259Z,1.70
2022-10-26T01:17:31.054Z,1.80
2022-10-26T01:18:37.232Z,1.77
2022-10-26T01:19:57.546Z,1.30
2022-10-26T01:20:59.019Z,1.47
2022-10-26T01:22:03.092Z,1.50
2022-10-26T01:23:07.605Z,1.53
2022-10-26T01:24:18.353Z,1.43
2022-10-26T01:25:25.948Z,1.50
2022-10-26T01:26:49.605Z,1.60
2022-10-26T01:27:52.441Z,1.73
2022-10-26T01:28:53.918Z,1.60
2022-10-26T01:29:58.414Z,1.50
2022-10-26T01:31:01.443Z,1.70
2022-10-26T01:32:02.760Z,1.57
2022-10-26T01:33:09.519Z,2.00
2022-10-26T01:34:33.491Z,1.43
2022-10-26T01:35:44.099Z,1.63
2022-10-26T01:37:05.607Z,1.57
2022-10-26T01:38:25.464Z,1.87
2022-10-26T01:39:34.004Z,1.70
2022-10-26T01:40:38.028Z,1.93
2022-10-26T01:41:44.432Z,1.50
2022-10-26T01:42:48.501Z,1.97
2022-10-26T01:43:58.568Z,1.70
2022-10-26T01:45:02.598Z,1.67
2022-10-26T01:46:05.239Z,1.60
2022-10-26T01:47:07.789Z,1.80
2022-10-26T01:48:10.746Z,1.67
2022-10-26T01:49:13.189Z,1.60
2022-10-26T01:50:15.263Z,1.80
2022-10-26T01:51:17.580Z,1.57
2022-10-26T01:52:19.779Z,1.53
2022-10-26T01:53:21.467Z,1.50
2022-10-26T01:54:22.952Z,1.60
2022-10-26T01:55:40.033Z,1.50
2022-10-26T01:56:43.820Z,1.70
2022-10-26T01:57:45.207Z,1.40
2022-10-26T01:58:55.458Z,1.50
2022-10-26T02:00:07.919Z,1.57
2022-10-26T02:01:18.786Z,1.60
2022-10-26T02:02:34.272Z,1.40
2022-10-26T02:03:55.994Z,1.30
2022-10-26T02:04:57.420Z,1.50
2022-10-26T02:06:04.823Z,1.60
2022-10-26T02:07:09.243Z,1.70
2022-10-26T02:08:23.722Z,1.50
2022-10-26T02:09:35.651Z,1.30
2022-10-26T02:10:40.021Z,1.90
2022-10-26T02:11:42.869Z,1.57
2022-10-26T02:13:00.805Z,1.50
2022-10-26T02:14:20.212Z,1.63
2022-10-26T02:15:23.094Z,1.70
2022-10-26T02:16:27.652Z,1.20
2022-10-26T02:17:33.657Z,1.63
2022-10-26T02:18:38.099Z,1.40
2022-10-26T02:19:42.252Z,2.43
2022-10-26T02:20:45.207Z,1.40
2022-10-26T02:21:49.632Z,1.53
2022-10-26T02:22:52.696Z,1.50
2022-10-26T02:23:55.954Z,1.57
2022-10-26T02:24:58.733Z,1.50
2022-10-26T02:26:00.920Z,1.60
2022-10-26T02:27:04.441Z,1.33
2022-10-26T02:28:07.477Z,1.97
2022-10-26T02:29:10.913Z,1.27
2022-10-26T02:30:13.156Z,1.40
2022-10-26T02:31:15.699Z,1.30
2022-10-26T02:32:18.441Z,1.47
2022-10-26T02:33:20.547Z,1.37
2022-10-26T02:34:24.217Z,1.40
2022-10-26T02:35:27.827Z,1.80
2022-10-26T02:36:31.251Z,1.47
2022-10-26T02:37:34.349Z,1.67
2022-10-26T02:38:37.043Z,1.40
2022-10-26T02:39:39.457Z,1.30
2022-10-26T02:40:41.921Z,1.47
2022-10-26T02:41:45.568Z,1.20
2022-10-26T02:42:47.706Z,1.97
2022-10-26T02:43:53.817Z,1.50
2022-10-26T02:44:58.076Z,1.90
2022-10-26T02:46:01.701Z,1.60
2022-10-26T02:47:03.165Z,1.60
2022-10-26T02:48:04.812Z,2.00
2022-10-26T02:49:06.439Z,2.17
2022-10-26T02:50:08.118Z,1.87
2022-10-26T02:51:09.437Z,2.10
2022-10-26T02:52:13.352Z,1.97
2022-10-26T02:53:24.999Z,2.20
2022-10-26T02:54:29.484Z,2.00
2022-10-26T02:55:34.864Z,2.13
2022-10-26T02:56:41.768Z,2.30
2022-10-26T02:57:45.039Z,2.00
2022-10-26T02:58:48.016Z,1.67
2022-10-26T02:59:49.939Z,2.10
2022-10-26T03:00:51.588Z,2.00
2022-10-26T03:01:53.815Z,1.60
2022-10-26T03:03:02.812Z,1.83
2022-10-26T03:04:04.273Z,1.73
2022-10-26T03:05:14.741Z,1.80
2022-10-26T03:06:23.141Z,1.67
2022-10-26T03:07:24.869Z,1.73
2022-10-26T03:08:26.299Z,1.60
2022-10-26T03:09:28.037Z,1.60
2022-10-26T03:10:29.515Z,1.83
2022-10-26T03:11:30.890Z,2.00
2022-10-26T03:12:32.195Z,1.80
2022-10-26T03:13:33.574Z,1.50
2022-10-26T03:14:34.905Z,1.30
2022-10-26T03:15:36.584Z,1.60
2022-10-26T03:16:37.983Z,1.90
2022-10-26T03:17:39.380Z,1.53
2022-10-26T03:18:40.755Z,1.43
2022-10-26T03:19:42.165Z,1.60
2022-10-26T03:20:44.234Z,1.57
2022-10-26T03:21:45.603Z,1.70
2022-10-26T03:22:48.090Z,1.50
2022-10-26T03:23:50.514Z,1.50
2022-10-26T03:24:51.873Z,1.77
2022-10-26T03:25:56.761Z,1.57
2022-10-26T03:27:01.181Z,1.53
2022-10-26T03:28:04.418Z,1.90
2022-10-26T03:29:05.784Z,1.37
2022-10-26T03:30:08.017Z,1.63
2022-10-26T03:31:09.439Z,1.47
2022-10-26T03:32:10.782Z,1.47
2022-10-26T03:33:12.767Z,1.50
2022-10-26T03:34:14.273Z,1.37
2022-10-26T03:35:15.727Z,1.50
2022-10-26T03:36:17.051Z,1.40
2022-10-26T03:37:18.813Z,1.40
2022-10-26T03:38:20.236Z,1.33
2022-10-26T03:39:21.639Z,1.30
2022-10-26T03:40:23.750Z,1.33
2022-10-26T03:41:25.242Z,1.23
2022-10-26T03:42:28.639Z,1.60
2022-10-26T03:43:30.257Z,1.50
2022-10-26T03:44:31.734Z,1.93
2022-10-26T03:45:33.096Z,1.70
2022-10-26T03:46:34.585Z,1.60
2022-10-26T03:47:42.501Z,1.30
2022-10-26T03:48:43.940Z,1.30
2022-10-26T03:49:45.294Z,1.50
2022-10-26T03:50:46.632Z,1.60
2022-10-26T03:51:47.980Z,1.40
2022-10-26T03:52:49.657Z,1.60
2022-10-26T03:53:51.291Z,1.57
2022-10-26T03:54:52.734Z,1.37
2022-10-26T03:55:54.147Z,1.20
2022-10-26T03:56:55.525Z,1.30
2022-10-26T03:57:56.873Z,1.50
2022-10-26T03:58:58.268Z,1.60
2022-10-26T03:59:59.940Z,1.43
2022-10-26T04:01:01.294Z,1.40
2022-10-26T04:02:02.788Z,1.63
2022-10-26T04:03:04.648Z,1.60
2022-10-26T04:04:06.393Z,1.60
2022-10-26T04:05:08.321Z,1.30
2022-10-26T04:06:09.787Z,1.43
2022-10-26T04:07:11.194Z,1.50
2022-10-26T04:08:12.687Z,1.40
2022-10-26T04:09:14.120Z,1.40
2022-10-26T04:10:15.550Z,1.47
2022-10-26T04:11:17.097Z,1.63
2022-10-26T04:12:18.453Z,1.67
2022-10-26T04:13:19.853Z,2.47
2022-10-26T04:14:21.343Z,1.43
2022-10-26T04:15:23.014Z,1.50
2022-10-26T04:16:25.253Z,1.40
2022-10-26T04:17:28.424Z,1.70
2022-10-26T04:18:29.876Z,1.50
2022-10-26T04:19:31.200Z,1.43
2022-10-26T04:20:33.451Z,1.63
2022-10-26T04:21:35.383Z,1.70
2022-10-26T04:22:36.748Z,1.70
2022-10-26T04:23:38.077Z,1.50
2022-10-26T04:24:39.415Z,1.43
2022-10-26T04:25:40.836Z,1.60
2022-10-26T04:26:42.141Z,1.30
2022-10-26T04:27:43.494Z,1.43
2022-10-26T04:28:44.910Z,1.83
2022-10-26T04:29:46.351Z,1.50
2022-10-26T04:30:47.747Z,1.90
2022-10-26T04:31:49.219Z,1.50
2022-10-26T04:32:51.262Z,1.40
2022-10-26T04:33:52.687Z,1.93
2022-10-26T04:34:54.483Z,1.33
2022-10-26T04:36:01.592Z,1.63
2022-10-26T04:37:03.026Z,1.70
2022-10-26T04:38:06.086Z,1.50
2022-10-26T04:39:07.481Z,1.50
2022-10-26T04:40:09.200Z,1.50
2022-10-26T04:41:10.597Z,1.70
2022-10-26T04:42:11.961Z,1.63
2022-10-26T04:43:13.428Z,1.80
2022-10-26T04:44:14.954Z,1.43
2022-10-26T04:45:16.660Z,1.50
2022-10-26T04:46:18.252Z,1.70
2022-10-26T04:47:19.706Z,1.73
2022-10-26T04:48:21.137Z,1.77
2022-10-26T04:49:22.473Z,1.83
2022-10-26T04:50:26.220Z,1.70
2022-10-26T04:51:29.769Z,1.47
2022-10-26T04:52:31.223Z,2.03
2022-10-26T04:53:33.421Z,1.63
2022-10-26T04:54:34.732Z,1.60
2022-10-26T04:55:36.139Z,1.70
2022-10-26T04:56:37.711Z,1.83
2022-10-26T04:57:39.116Z,1.53
2022-10-26T04:58:40.551Z,1.40
2022-10-26T04:59:42.198Z,1.40
2022-10-26T05:00:45.848Z,1.70
2022-10-26T05:01:47.515Z,1.73
2022-10-26T05:02:49.367Z,2.07
2022-10-26T05:03:53.468Z,1.60
2022-10-26T05:04:55.043Z,1.60
2022-10-26T05:05:58.605Z,1.80
2022-10-26T05:07:00.272Z,1.70
2022-10-26T05:08:01.707Z,1.90
2022-10-26T05:09:09.798Z,1.80
2022-10-26T05:10:14.692Z,1.57
2022-10-26T05:11:16.125Z,1.80
2022-10-26T05:12:17.471Z,1.40
2022-10-26T05:13:18.850Z,1.67
2022-10-26T05:14:20.210Z,1.67
2022-10-26T05:15:21.639Z,1.70
2022-10-26T05:16:23.108Z,1.70
2022-10-26T05:17:25.207Z,1.70
2022-10-26T05:18:26.610Z,1.67
2022-10-26T05:19:28.002Z,1.50
2022-10-26T05:20:31.212Z,1.80
2022-10-26T05:21:32.733Z,1.60
2022-10-26T05:22:34.147Z,1.90
2022-10-26T05:23:35.507Z,1.50
2022-10-26T05:24:36.840Z,1.40
2022-10-26T05:25:38.601Z,1.80
2022-10-26T05:26:39.917Z,1.47
2022-10-26T05:27:41.236Z,1.80
2022-10-26T05:28:42.560Z,1.77
2022-10-26T05:29:43.997Z,1.80
2022-10-26T05:30:46.057Z,2.00
2022-10-26T05:31:47.371Z,1.90
2022-10-26T05:32:55.258Z,2.60
2022-10-26T05:33:56.618Z,2.07
2022-10-26T05:34:57.929Z,2.07
2022-10-26T05:35:59.329Z,3.80
2022-10-26T05:37:00.758Z,3.90
2022-10-26T05:38:08.811Z,3.17
2022-10-26T05:39:10.162Z,2.80
2022-10-26T05:40:11.915Z,2.10
2022-10-26T05:41:13.221Z,2.10
2022-10-26T05:42:14.593Z,2.23
2022-10-26T05:43:16.271Z,2.10
2022-10-26T05:44:17.636Z,2.00
2022-10-26T05:45:19.083Z,2.10
2022-10-26T05:46:20.401Z,1.90
2022-10-26T05:47:21.721Z,1.73
2022-10-26T05:48:23.057Z,2.00
2022-10-26T05:49:24.367Z,2.03
2022-10-26T05:50:25.762Z,2.17
2022-10-26T05:51:27.081Z,1.77
2022-10-26T05:52:28.486Z,1.90
2022-10-26T05:53:29.865Z,1.80
2022-10-26T05:54:31.213Z,1.90
2022-10-26T05:55:32.691Z,2.00
2022-10-26T05:56:38.143Z,1.93
2022-10-26T05:57:39.707Z,1.73
2022-10-26T05:58:41.270Z,1.70
2022-10-26T05:59:42.840Z,1.80
2022-10-26T06:00:50.107Z,1.50
2022-10-26T06:02:00.702Z,2.10
2022-10-26T06:03:08.067Z,1.60
2022-10-26T06:04:25.478Z,1.93
2022-10-26T06:05:28.083Z,2.40
2022-10-26T06:06:32.721Z,2.50
2022-10-26T06:07:34.217Z,2.33
2022-10-26T06:08:35.709Z,2.00
2022-10-26T06:09:37.755Z,1.90
2022-10-26T06:10:39.422Z,1.80
2022-10-26T06:11:40.995Z,1.63
2022-10-26T06:12:42.556Z,1.90
2022-10-26T06:13:44.103Z,1.90
2022-10-26T06:14:45.572Z,1.67
2022-10-26T06:15:46.844Z,1.43
2022-10-26T06:17:10.571Z,1.80
2022-10-26T06:18:18.181Z,1.87
2022-10-26T06:19:22.054Z,1.87
2022-10-26T06:20:29.421Z,2.07
2022-10-26T06:21:36.739Z,2.10
2022-10-26T06:22:53.572Z,1.60
2022-10-26T06:23:54.896Z,1.83
2022-10-26T06:25:14.829Z,2.07
2022-10-26T06:26:34.951Z,2.03
2022-10-26T06:27:42.368Z,2.10
2022-10-26T06:28:50.890Z,2.00
2022-10-26T06:29:55.277Z,2.03
2022-10-26T06:30:57.219Z,1.80
2022-10-26T06:31:58.563Z,2.10
2022-10-26T06:33:06.658Z,1.80
2022-10-26T06:34:22.732Z,2.00
2022-10-26T06:35:37.233Z,1.97
2022-10-26T06:36:38.825Z,1.77
2022-10-26T06:37:42.517Z,2.23
2022-10-26T06:38:44.611Z,2.10
2022-10-26T06:39:49.994Z,2.20
2022-10-26T06:40:56.400Z,2.00
2022-10-26T06:41:58.397Z,1.97
2022-10-26T06:43:00.268Z,2.10
2022-10-26T06:44:02.685Z,2.03
2022-10-26T06:45:04.384Z,1.87
2022-10-26T06:46:19.554Z,3.50
2022-10-26T06:47:26.948Z,2.63
2022-10-26T06:48:29.519Z,2.83
2022-10-26T06:49:42.803Z,2.63
2022-10-26T06:50:51.622Z,2.20
2022-10-26T06:52:00.345Z,1.87
2022-10-26T06:53:01.629Z,2.00
2022-10-26T06:54:16.644Z,2.30
2022-10-26T06:55:18.106Z,2.03
2022-10-26T06:56:19.871Z,2.17
2022-10-26T06:57:22.370Z,1.83
2022-10-26T06:58:25.269Z,2.00
2022-10-26T06:59:37.028Z,2.20
2022-10-26T07:00:39.343Z,1.73
2022-10-26T07:01:41.066Z,2.27
2022-10-26T07:02:42.745Z,1.80
2022-10-26T07:03:44.201Z,2.17
2022-10-26T07:04:45.606Z,2.27
2022-10-26T07:05:46.979Z,1.70
2022-10-26T07:06:48.316Z,2.43
2022-10-26T07:07:50.251Z,2.03
2022-10-26T07:08:51.805Z,2.10
2022-10-26T07:09:53.742Z,3.00
2022-10-26T07:10:55.079Z,2.13
2022-10-26T07:11:56.465Z,7.40
2022-10-26T07:12:57.812Z,3.67
2022-10-26T07:13:59.132Z,2.63
2022-10-26T07:15:00.813Z,2.83
2022-10-26T07:16:02.190Z,1.90
2022-10-26T07:17:03.750Z,2.27
2022-10-26T07:18:05.854Z,2.10
2022-10-26T07:19:07.260Z,1.93
2022-10-26T07:20:08.833Z,2.27
2022-10-26T07:21:10.423Z,2.00
2022-10-26T07:22:11.848Z,2.30
2022-10-26T07:23:13.207Z,2.60
2022-10-26T07:24:14.548Z,2.57
2022-10-26T07:25:15.948Z,2.50
2022-10-26T07:26:17.281Z,3.10
2022-10-26T07:27:21.690Z,2.60
2022-10-26T07:28:22.965Z,2.27
2022-10-26T07:29:24.862Z,2.10
2022-10-26T07:30:26.736Z,2.20
2022-10-26T07:31:28.059Z,2.03
2022-10-26T07:32:30.319Z,2.47
2022-10-26T07:33:31.695Z,2.47
2022-10-26T07:34:33.003Z,2.00
2022-10-26T07:35:34.508Z,2.10
2022-10-26T07:36:36.686Z,2.10
2022-10-26T07:37:38.075Z,2.27
2022-10-26T07:38:39.696Z,1.90
2022-10-26T07:39:41.018Z,2.00
2022-10-26T07:40:42.326Z,1.97
2022-10-26T07:41:44.975Z,1.97
2022-10-26T07:42:47.726Z,2.20
2022-10-26T07:43:50.715Z,1.80
2022-10-26T07:44:52.045Z,2.10
2022-10-26T07:45:53.410Z,2.10
2022-10-26T07:46:54.776Z,2.10
2022-10-26T07:47:56.193Z,2.23
2022-10-26T07:48:57.520Z,2.30
2022-10-26T07:49:58.887Z,2.30
2022-10-26T07:51:02.864Z,1.90
2022-10-26T07:52:04.550Z,2.30
2022-10-26T07:53:05.991Z,2.10
2022-10-26T07:54:07.350Z,2.30
2022-10-26T07:55:09.879Z,2.00
2022-10-26T07:56:11.213Z,1.93
2022-10-26T07:57:12.534Z,1.83
2022-10-26T07:58:14.022Z,1.93
2022-10-26T07:59:15.384Z,2.03
2022-10-26T08:00:16.780Z,2.03
2022-10-26T08:01:18.319Z,2.20
2022-10-26T08:02:19.890Z,2.47
2022-10-26T08:03:21.368Z,2.40
2022-10-26T08:04:22.700Z,2.07
2022-10-26T08:05:24.149Z,1.90
2022-10-26T08:06:25.544Z,1.90
2022-10-26T08:07:27.232Z,2.40
2022-10-26T08:08:28.566Z,2.00
2022-10-26T08:09:29.900Z,2.10
2022-10-26T08:10:31.232Z,1.97
2022-10-26T08:11:32.708Z,1.70
2022-10-26T08:12:34.038Z,2.47
2022-10-26T08:13:35.548Z,3.90
2022-10-26T08:14:36.903Z,3.20
2022-10-26T08:15:38.257Z,2.40
2022-10-26T08:16:40.430Z,2.33
2022-10-26T08:17:41.708Z,2.00
2022-10-26T08:18:43.073Z,2.00
2022-10-26T08:19:44.413Z,1.63
2022-10-26T08:20:45.735Z,1.90
2022-10-26T08:21:47.081Z,1.90
2022-10-26T08:22:48.760Z,1.80
2022-10-26T08:23:50.360Z,2.17
2022-10-26T08:24:51.655Z,2.03
2022-10-26T08:25:57.524Z,2.20
2022-10-26T08:26:58.860Z,2.13
2022-10-26T08:28:03.907Z,2.77
2022-10-26T08:29:05.256Z,2.20
2022-10-26T08:30:06.836Z,2.23
2022-10-26T08:31:08.356Z,2.20
2022-10-26T08:32:09.685Z,2.30
2022-10-26T08:33:11.048Z,2.50
2022-10-26T08:34:12.357Z,2.17
2022-10-26T08:35:13.698Z,2.07
2022-10-26T08:36:19.856Z,2.00
2022-10-26T08:37:22.728Z,2.10
2022-10-26T08:38:24.326Z,2.53
2022-10-26T08:39:28.441Z,2.20
2022-10-26T08:40:33.932Z,1.93
2022-10-26T08:41:37.061Z,2.50
2022-10-26T08:42:44.303Z,2.13
2022-10-26T08:43:52.419Z,2.13
2022-10-26T08:44:58.419Z,2.33
2022-10-26T08:46:05.870Z,1.80
2022-10-26T08:47:11.491Z,2.10
2022-10-26T08:48:15.813Z,2.50
2022-10-26T08:49:25.833Z,2.60
2022-10-26T08:50:33.259Z,2.00
2022-10-26T08:51:37.386Z,2.20
2022-10-26T08:52:42.971Z,2.00
2022-10-26T08:53:50.166Z,2.30
2022-10-26T08:54:53.001Z,1.77
2022-10-26T08:56:04.438Z,1.83
2022-10-26T08:57:16.141Z,1.80
2022-10-26T08:58:19.817Z,1.80
2022-10-26T08:59:26.624Z,1.90
2022-10-26T09:00:29.317Z,1.80
2022-10-26T09:01:31.356Z,2.23
2022-10-26T09:02:32.829Z,1.60
2022-10-26T09:03:34.342Z,2.20
2022-10-26T09:04:36.755Z,2.20
2022-10-26T09:05:47.793Z,2.53
2022-10-26T09:06:54.757Z,2.00
2022-10-26T09:08:08.824Z,2.27
2022-10-26T09:09:13.850Z,1.80
2022-10-26T09:10:17.981Z,2.03
2022-10-26T09:11:28.118Z,2.23
2022-10-26T09:12:38.135Z,1.93
2022-10-26T09:13:39.487Z,2.63
2022-10-26T09:14:53.739Z,2.30
2022-10-26T09:16:30.383Z,5.17
2022-10-26T09:17:34.292Z,2.97
2022-10-26T09:18:51.146Z,2.00
2022-10-26T09:20:07.746Z,2.13
2022-10-26T09:21:09.199Z,3.00
2022-10-26T09:22:22.826Z,2.20
2022-10-26T09:23:29.681Z,2.10
2022-10-26T09:24:32.546Z,1.93
2022-10-26T09:25:38.825Z,2.30
2022-10-26T09:26:52.295Z,2.10
2022-10-26T09:28:01.251Z,2.23
2022-10-26T09:29:04.837Z,2.30
2022-10-26T09:30:19.946Z,2.43
2022-10-26T09:31:21.860Z,2.33
2022-10-26T09:32:25.271Z,2.50
2022-10-26T09:33:26.769Z,2.10
2022-10-26T09:34:31.542Z,2.37
2022-10-26T09:35:43.413Z,2.53
2022-10-26T09:36:44.816Z,2.33
2022-10-26T09:37:55.064Z,2.50
2022-10-26T09:39:01.217Z,2.37
2022-10-26T09:40:13.183Z,2.50
2022-10-26T09:41:25.246Z,2.50
2022-10-26T09:42:36.270Z,2.50
2022-10-26T09:43:50.571Z,3.00
2022-10-26T09:44:55.174Z,2.33
2022-10-26T09:45:56.604Z,2.43
2022-10-26T09:47:09.923Z,2.10
2022-10-26T09:48:14.672Z,2.30
2022-10-26T09:49:17.972Z,3.83
2022-10-26T09:50:22.286Z,3.97
2022-10-26T09:51:23.804Z,2.77
2022-10-26T09:52:25.207Z,2.30
2022-10-26T09:53:26.919Z,2.83
2022-10-26T09:54:28.285Z,2.40
2022-10-26T09:55:31.124Z,2.40
2022-10-26T09:56:32.608Z,2.87
2022-10-26T09:57:33.993Z,2.53
2022-10-26T09:58:37.443Z,2.60
2022-10-26T09:59:39.980Z,2.23
2022-10-26T10:00:42.035Z,2.17
2022-10-26T10:01:43.490Z,2.20
2022-10-26T10:02:45.946Z,2.57
2022-10-26T10:03:47.330Z,2.67
2022-10-26T10:04:48.670Z,2.40
2022-10-26T10:05:51.599Z,2.50
2022-10-26T10:07:02.890Z,2.10
2022-10-26T10:08:10.873Z,2.63
2022-10-26T10:09:15.361Z,2.40
2022-10-26T10:10:18.617Z,2.43
2022-10-26T10:11:19.922Z,2.93
2022-10-26T10:12:21.336Z,2.70
2022-10-26T10:13:23.767Z,2.43
2022-10-26T10:14:36.135Z,2.87
2022-10-26T10:15:40.480Z,3.47
2022-10-26T10:16:49.380Z,3.30
2022-10-26T10:17:53.101Z,2.70
2022-10-26T10:19:01.370Z,2.70
2022-10-26T10:20:17.965Z,3.90
2022-10-26T10:21:19.439Z,2.70
2022-10-26T10:22:22.532Z,3.10
2022-10-26T10:23:28.668Z,2.60
2022-10-26T10:24:34.536Z,3.00
2022-10-26T10:25:36.942Z,2.90
2022-10-26T10:26:55.528Z,2.80
2022-10-26T10:27:56.879Z,2.57
2022-10-26T10:29:00.477Z,2.53
2022-10-26T10:30:19.502Z,2.60
2022-10-26T10:31:22.416Z,2.40
2022-10-26T10:32:25.823Z,2.53
2022-10-26T10:33:34.698Z,2.43
2022-10-26T10:34:36.110Z,2.27
2022-10-26T10:35:38.794Z,2.50
2022-10-26T10:36:40.149Z,2.40
2022-10-26T10:37:44.307Z,2.50
2022-10-26T10:38:46.452Z,2.20
2022-10-26T10:39:48.551Z,2.83
2022-10-26T10:40:51.140Z,2.17
2022-10-26T10:41:52.601Z,2.20
2022-10-26T10:43:02.907Z,2.60
2022-10-26T10:44:23.107Z,2.50
2022-10-26T10:45:26.366Z,2.20
2022-10-26T10:46:28.015Z,2.45
2022-10-26T10:47:33.443Z,2.70
2022-10-26T10:48:37.197Z,2.87
2022-10-26T10:49:40.789Z,2.50
2022-10-26T10:50:58.555Z,2.60
2022-10-26T10:52:00.493Z,2.00
2022-10-26T10:53:14.132Z,2.20
2022-10-26T10:54:31.936Z,2.70
2022-10-26T10:55:33.718Z,2.20
2022-10-26T10:56:41.637Z,2.60
2022-10-26T10:57:52.270Z,2.77
2022-10-26T10:59:12.652Z,2.80
2022-10-26T11:00:14.251Z,2.47
2022-10-26T11:01:18.641Z,2.70
2022-10-26T11:02:23.137Z,2.70
2022-10-26T11:03:32.887Z,2.37
2022-10-26T11:04:40.297Z,2.53
2022-10-26T11:05:48.148Z,2.03
2022-10-26T11:06:50.361Z,2.10
2022-10-26T11:08:02.803Z,2.50
2022-10-26T11:09:12.442Z,2.57
2022-10-26T11:10:16.338Z,2.20
2022-10-26T11:11:20.316Z,2.30
2022-10-26T11:12:24.786Z,2.50
2022-10-26T11:13:47.345Z,2.40
2022-10-26T11:14:52.711Z,2.03
2022-10-26T11:15:58.690Z,2.60
2022-10-26T11:17:06.627Z,2.50
2022-10-26T11:18:12.459Z,2.07
2022-10-26T11:19:29.213Z,2.50
2022-10-26T11:20:32.632Z,2.70
2022-10-26T11:21:37.793Z,2.53
2022-10-26T11:22:41.350Z,2.67
2022-10-26T11:23:52.691Z,2.70
2022-10-26T11:25:04.019Z,2.80
2022-10-26T11:26:11.359Z,2.73
2022-10-26T11:27:17.768Z,2.13
2022-10-26T11:28:37.675Z,2.33
2022-10-26T11:29:47.590Z,3.20
2022-10-26T11:30:55.518Z,2.40
2022-10-26T11:32:07.199Z,2.80
2022-10-26T11:33:17.652Z,2.77
2022-10-26T11:34:37.997Z,2.20
2022-10-26T11:35:45.784Z,2.33
2022-10-26T11:36:49.239Z,2.00
2022-10-26T11:37:54.614Z,2.57
2022-10-26T11:38:59.947Z,2.33
2022-10-26T11:40:16.438Z,2.20
2022-10-26T11:41:32.836Z,2.20
2022-10-26T11:42:51.257Z,2.20
2022-10-26T11:44:05.887Z,2.30
2022-10-26T11:45:16.489Z,1.90
2022-10-26T11:46:28.458Z,2.50
2022-10-26T11:47:34.737Z,2.33
2022-10-26T11:48:40.728Z,2.30
2022-10-26T11:49:49.567Z,2.60
2022-10-26T11:50:53.349Z,2.67
2022-10-26T11:52:17.591Z,2.20
2022-10-26T11:53:24.910Z,2.27
2022-10-26T11:54:34.376Z,2.50
2022-10-26T11:55:35.922Z,2.08
2022-10-26T11:56:40.263Z,2.90
2022-10-26T11:57:42.088Z,5.07
2022-10-26T11:58:44.217Z,8.20
2022-10-26T11:59:49.483Z,8.75
2022-10-26T12:00:53.703Z,8.88
2022-10-26T12:01:58.402Z,7.47
2022-10-26T12:03:06.962Z,4.78
2022-10-26T12:04:09.032Z,5.20
2022-10-26T12:05:16.286Z,5.30
2022-10-26T12:06:20.628Z,6.38
2022-10-26T12:07:24.734Z,4.57
2022-10-26T12:08:32.780Z,3.28
2022-10-26T12:09:36.992Z,2.85
2022-10-26T12:10:40.164Z,2.58
2022-10-26T12:11:45.303Z,2.50
2022-10-26T12:13:07.411Z,2.55
2022-10-26T12:14:21.605Z,3.67
2022-10-26T12:15:30.719Z,3.30
2022-10-26T12:16:41.547Z,2.70
2022-10-26T12:17:49.117Z,2.47
2022-10-26T12:18:57.878Z,2.85
2022-10-26T12:20:17.694Z,3.00
2022-10-26T12:21:19.306Z,2.70
2022-10-26T12:22:22.478Z,2.80
2022-10-26T12:23:40.574Z,2.77
2022-10-26T12:24:46.165Z,3.10
2022-10-26T12:25:47.589Z,2.47
2022-10-26T12:26:52.732Z,2.80
2022-10-26T12:27:55.655Z,2.67
2022-10-26T12:29:03.376Z,3.10
2022-10-26T12:30:19.833Z,2.83
2022-10-26T12:31:36.350Z,2.92
2022-10-26T12:32:40.272Z,2.28
2022-10-26T12:33:51.537Z,2.90
2022-10-26T12:34:55.032Z,2.60
2022-10-26T12:35:56.714Z,2.35
2022-10-26T12:36:58.172Z,2.50
2022-10-26T12:38:00.532Z,2.38
2022-10-26T12:39:02.110Z,2.30
2022-10-26T12:40:22.042Z,2.38
2022-10-26T12:41:24.609Z,2.50
2022-10-26T12:42:25.981Z,2.72
2022-10-26T12:43:27.464Z,2.60
2022-10-26T12:44:41.219Z,2.55
2022-10-26T12:45:44.200Z,3.28
2022-10-26T12:46:45.783Z,3.72
2022-10-26T12:47:50.586Z,2.55
2022-10-26T12:48:54.095Z,2.70
2022-10-26T12:50:08.267Z,1.98
2022-10-26T12:51:22.203Z,2.10
2022-10-26T12:52:28.442Z,2.40
2022-10-26T12:53:30.502Z,2.45
2022-10-26T12:54:45.849Z,2.80
2022-10-26T12:55:47.659Z,2.38
2022-10-26T12:56:51.759Z,3.00
2022-10-26T12:57:59.180Z,3.28
2022-10-26T12:59:09.355Z,2.88
2022-10-26T13:00:18.325Z,3.58
2022-10-26T13:01:25.872Z,3.03
2022-10-26T13:02:33.276Z,2.55
2022-10-26T13:03:40.657Z,2.40
2022-10-26T13:04:48.444Z,2.70
2022-10-26T13:06:01.171Z,2.47
2022-10-26T13:07:14.721Z,2.17
2022-10-26T13:08:17.063Z,2.67
2022-10-26T13:09:24.255Z,2.23
2022-10-26T13:10:26.209Z,2.10
2022-10-26T13:11:43.858Z,2.70
2022-10-26T13:12:48.222Z,2.77
2022-10-26T13:13:54.122Z,2.80
2022-10-26T13:14:59.017Z,2.50
2022-10-26T13:16:01.406Z,3.10
2022-10-26T13:17:05.405Z,2.78
2022-10-26T13:18:07.531Z,2.80
2022-10-26T13:19:23.961Z,2.80
2022-10-26T13:20:26.265Z,2.53
2022-10-26T13:21:27.891Z,2.43
2022-10-26T13:22:29.897Z,2.73
2022-10-26T13:23:33.096Z,2.10
2022-10-26T13:24:34.741Z,2.70
2022-10-26T13:25:36.412Z,2.50
2022-10-26T13:26:56.473Z,2.30
2022-10-26T13:28:00.136Z,2.67
2022-10-26T13:29:03.509Z,2.70
2022-10-26T13:30:04.897Z,2.33
2022-10-26T13:31:11.562Z,2.37
2022-10-26T13:32:13.690Z,2.30
2022-10-26T13:33:17.904Z,2.22
2022-10-26T13:34:20.377Z,2.20
2022-10-26T13:35:23.653Z,2.00
2022-10-26T13:36:33.064Z,2.20
2022-10-26T13:37:34.807Z,2.40
2022-10-26T13:38:36.995Z,2.20
2022-10-26T13:39:40.680Z,2.10
2022-10-26T13:40:43.094Z,2.00
2022-10-26T13:41:46.018Z,2.17
2022-10-26T13:43:03.430Z,2.10
2022-10-26T13:44:06.042Z,2.22
2022-10-26T13:45:10.153Z,1.98
2022-10-26T13:46:22.523Z,2.08
2022-10-26T13:47:24.109Z,2.30
2022-10-26T13:48:36.712Z,2.13
2022-10-26T13:49:42.361Z,2.15
2022-10-26T13:50:54.811Z,2.53
2022-10-26T13:51:58.609Z,2.25
2022-10-26T13:53:07.796Z,2.00
2022-10-26T13:54:21.792Z,1.98
2022-10-26T13:55:29.167Z,2.10
2022-10-26T13:56:36.329Z,2.05
2022-10-26T13:57:58.768Z,2.40
2022-10-26T13:59:00.207Z,2.38
2022-10-26T14:00:08.042Z,2.10
2022-10-26T14:01:18.133Z,1.95
2022-10-26T14:02:26.765Z,2.35
2022-10-26T14:03:29.984Z,2.10
2022-10-26T14:04:31.656Z,2.40
2022-10-26T14:05:33.837Z,2.53
2022-10-26T14:06:40.850Z,2.20
2022-10-26T14:08:47.108Z,2.15
2022-10-26T14:09:53.201Z,2.40
2022-10-26T14:10:59.330Z,2.17
2022-10-26T14:12:04.795Z,2.50
2022-10-26T14:13:12.627Z,2.10
2022-10-26T14:14:17.609Z,2.40
2022-10-26T14:15:22.858Z,2.60
2022-10-26T14:16:26.702Z,2.22
2022-10-26T14:17:28.245Z,1.92
2022-10-26T14:18:30.986Z,2.28
2022-10-26T14:19:34.180Z,2.50
2022-10-26T14:20:35.583Z,2.30
2022-10-26T14:21:39.885Z,2.53
2022-10-26T14:22:41.314Z,2.55
2022-10-26T14:24:03.496Z,2.10